Time;durP1;ratioP1;P1;durP2;ratioP2;P2;SDS_P1;SDS_P2;PMS_P1;PMS_P2;Temp;Humidity;BMP_temperature;BMP_pressure;BME280_temperature;BME280_humidity;BME280_pressure;Samples;Min_cycle;Max_cycle;Signal;HPM_P1;HPM_P2
2024/01/30 00:00:59;;;;;;;;;;;;;;;1.38;66.09;101901.88;4467985;32;33891;-84
2024/01/30 00:03:30;;;;;;;;;;;;;;;1.00;67.14;101901.34;4473637;32;33287;-84
2024/01/30 00:05:59;;;;;;;;;;;;;;;1.16;66.67;101900.59;4462364;32;34528;-84
2024/01/30 00:08:29;;;;;;;;;;;;;;;1.40;66.39;101896.06;4462536;32;34278;-85
2024/01/30 00:10:58;;;;;;;;;;;;;;;1.31;66.26;101889.53;4468130;32;33714;-86
2024/01/30 00:13:28;;;;;;;;;;;;;;;1.30;66.11;101891.19;4462929;32;33336;-85
2024/01/30 00:16:00;;;;;;;;;;;;;;;1.16;67.08;101894.56;4463318;32;34389;-86
2024/01/30 00:18:30;;;;;;;;;;;;;;;1.08;66.77;101895.81;4461933;32;33878;-84
2024/01/30 00:21:00;;;;;;;;;;;;;;;1.17;66.92;101894.69;4467873;32;33946;-84
2024/01/30 00:23:30;;;;;;;;;;;;;;;1.22;66.72;101892.41;4468185;32;33965;-83
2024/01/30 00:26:05;;;;;;;;;;;;;;;1.39;66.16;101895.97;4462290;32;32920;-84
2024/01/30 00:28:35;;;;;;;;;;;;;;;1.29;66.58;101897.09;4462392;32;34792;-85
2024/01/30 00:31:04;;;;;;;;;;;;;;;1.35;66.10;101901.69;4466566;32;34431;-85
2024/01/30 00:33:33;;;;;;;;;;;;;;;1.43;65.97;101908.16;4467491;32;33098;-85
2024/01/30 00:36:05;;;;;;;;;;;;;;;1.36;66.32;101908.59;4462441;32;35194;-85
2024/01/30 00:38:36;;;;;;;;;;;;;;;1.45;66.08;101910.00;4462222;32;33456;-86
2024/01/30 00:41:05;;;;;;;;;;;;;;;1.56;65.59;101902.94;4471092;32;34052;-86
2024/01/30 00:43:37;;;;;;;;;;;;;;;1.48;65.69;101909.31;4483653;32;33829;-87
2024/01/30 00:46:08;;;;;;;;;;;;;;;1.41;65.94;101912.28;4479939;32;33959;-85
2024/01/30 00:48:48;;;;;;;;;;;;;;;1.52;65.73;101912.91;4477778;32;35034;-85
2024/01/30 00:51:16;;;;;;;;;;;;;;;1.17;66.46;101911.69;4478389;32;33880;-85
2024/01/30 00:53:50;;;;;;;;;;;;;;;1.30;66.52;101921.00;4479828;32;33907;-84
2024/01/30 00:56:20;;;;;;;;;;;;;;;1.12;66.90;101921.66;4484880;32;33395;-86
2024/01/30 00:58:53;;;;;;;;;;;;;;;1.02;67.17;101916.78;4479704;32;34245;-85
2024/01/30 01:01:21;;;;;;;;;;;;;;;0.98;67.03;101914.81;4479759;32;33897;-84
2024/01/30 01:03:51;;;;;;;;;;;;;;;1.00;66.54;101903.00;4482143;32;34150;-86
2024/01/30 01:06:20;;;;;;;;;;;;;;;1.01;66.73;101907.31;4479632;32;34319;-85
2024/01/30 01:08:48;;;;;;;;;;;;;;;0.99;67.25;101899.56;4485321;32;34128;-86
2024/01/30 01:11:19;;;;;;;;;;;;;;;1.01;67.08;101899.66;4480385;32;33751;-86
2024/01/30 01:13:51;;;;;;;;;;;;;;;0.96;66.88;101896.81;4477754;32;32354;-84
2024/01/30 01:16:20;;;;;;;;;;;;;;;1.00;66.83;101898.78;4472010;32;34186;-86
2024/01/30 01:18:52;;;;;;;;;;;;;;;0.97;66.45;101897.72;4485045;32;33919;-84
2024/01/30 01:21:24;;;;;;;;;;;;;;;1.14;65.99;101896.19;4475393;32;33881;-84
2024/01/30 01:23:54;;;;;;;;;;;;;;;1.08;65.63;101893.25;4473721;32;33524;-85
2024/01/30 01:26:24;;;;;;;;;;;;;;;0.76;67.11;101894.72;4464391;32;34713;-84
2024/01/30 01:28:52;;;;;;;;;;;;;;;0.83;67.00;101889.19;4479794;32;33604;-86
2024/01/30 01:31:24;;;;;;;;;;;;;;;0.96;66.31;101891.69;4484842;32;33535;-85
2024/01/30 01:33:53;;;;;;;;;;;;;;;0.69;67.17;101890.91;4479886;32;34409;-84
2024/01/30 01:36:23;;;;;;;;;;;;;;;0.59;67.32;101886.88;4479262;32;34000;-84
2024/01/30 01:38:52;;;;;;;;;;;;;;;0.67;66.69;101879.69;4476545;32;34460;-86
2024/01/30 01:41:30;;;;;;;;;;;;;;;0.71;66.80;101880.78;4469592;32;34393;-85
2024/01/30 01:44:02;;;;;;;;;;;;;;;0.84;66.25;101881.59;4479922;32;32631;-85
2024/01/30 01:46:31;;;;;;;;;;;;;;;1.06;65.68;101878.72;4477344;32;34910;-84
2024/01/30 01:49:05;;;;;;;;;;;;;;;1.16;65.41;101877.59;4475277;32;34001;-85
2024/01/30 01:51:35;;;;;;;;;;;;;;;1.10;65.70;101874.66;4474541;32;33477;-86
2024/01/30 01:54:12;;;;;;;;;;;;;;;1.01;65.92;101879.19;4469262;32;32894;-83
2024/01/30 01:56:42;;;;;;;;;;;;;;;1.03;65.98;101875.94;4464395;32;34218;-86
2024/01/30 01:59:12;;;;;;;;;;;;;;;1.11;65.52;101876.41;4465212;32;34063;-85
2024/01/30 02:01:43;;;;;;;;;;;;;;;1.10;65.40;101876.34;4475879;32;34816;-85
2024/01/30 02:04:12;;;;;;;;;;;;;;;1.10;65.37;101872.09;4465981;32;33568;-88
2024/01/30 02:06:47;;;;;;;;;;;;;;;0.93;65.77;101872.75;4484602;32;34482;-86
2024/01/30 02:09:16;;;;;;;;;;;;;;;1.00;65.84;101878.31;4473331;32;34426;-84
2024/01/30 02:11:46;;;;;;;;;;;;;;;1.00;65.48;101872.34;4465050;32;33014;-85
2024/01/30 02:14:15;;;;;;;;;;;;;;;0.89;65.97;101878.47;4463274;32;32912;-84
2024/01/30 02:16:44;;;;;;;;;;;;;;;0.94;65.74;101874.50;4482908;32;33664;-85
2024/01/30 02:19:14;;;;;;;;;;;;;;;0.84;65.85;101878.19;4475723;32;33513;-85
2024/01/30 02:21:45;;;;;;;;;;;;;;;0.77;66.04;101874.34;4469876;32;33788;-85
2024/01/30 02:24:18;;;;;;;;;;;;;;;0.65;66.02;101871.03;4464648;32;33966;-88
2024/01/30 02:26:47;;;;;;;;;;;;;;;0.69;66.55;101875.56;4463565;32;34136;-86
2024/01/30 02:29:19;;;;;;;;;;;;;;;0.67;66.38;101868.59;4468999;32;34715;-84
2024/01/30 02:31:53;;;;;;;;;;;;;;;0.54;66.83;101865.28;4463944;32;33788;-85
2024/01/30 02:34:22;;;;;;;;;;;;;;;0.61;66.04;101872.53;4463890;32;32452;-85
2024/01/30 02:37:00;;;;;;;;;;;;;;;0.78;65.94;101875.25;4478115;32;34408;-86
2024/01/30 02:39:29;;;;;;;;;;;;;;;0.85;65.35;101875.72;4483175;32;34325;-86
2024/01/30 02:42:01;;;;;;;;;;;;;;;0.68;66.10;101870.34;4484204;32;34273;-84
2024/01/30 02:44:30;;;;;;;;;;;;;;;0.81;64.99;101871.22;4464305;32;32965;-86
2024/01/30 02:47:01;;;;;;;;;;;;;;;0.85;65.03;101878.28;4477459;32;34269;-86
2024/01/30 02:49:30;;;;;;;;;;;;;;;0.82;64.98;101878.09;4479440;32;34803;-85
2024/01/30 02:52:07;;;;;;;;;;;;;;;0.59;65.76;101871.56;4484482;32;33932;-87
2024/01/30 02:54:36;;;;;;;;;;;;;;;0.57;65.67;101874.81;4484521;32;32469;-84
2024/01/30 02:57:09;;;;;;;;;;;;;;;0.50;65.85;101865.88;4477248;32;34198;-87
2024/01/30 02:59:39;;;;;;;;;;;;;;;0.61;65.37;101872.53;4472669;32;35804;-85
2024/01/30 03:02:08;;;;;;;;;;;;;;;0.60;65.44;101865.69;4484134;32;33701;-84
2024/01/30 03:04:37;;;;;;;;;;;;;;;0.66;65.43;101872.84;4478074;32;32749;-84
2024/01/30 03:07:13;;;;;;;;;;;;;;;0.53;65.61;101872.84;4469160;32;33670;-85
2024/01/30 03:09:43;;;;;;;;;;;;;;;0.40;66.06;101876.31;4463221;32;33457;-85
2024/01/30 03:12:13;;;;;;;;;;;;;;;0.54;65.83;101867.84;4464647;32;33687;-85
2024/01/30 03:14:47;;;;;;;;;;;;;;;0.66;65.64;101861.75;4472543;32;32940;-84
2024/01/30 03:17:17;;;;;;;;;;;;;;;0.61;65.54;101872.53;4475525;32;33565;-85
2024/01/30 03:19:48;;;;;;;;;;;;;;;0.59;65.55;101873.25;4469874;32;35082;-85
2024/01/30 03:22:18;;;;;;;;;;;;;;;0.61;65.37;101871.66;4471509;32;33851;-87
2024/01/30 03:24:50;;;;;;;;;;;;;;;0.65;65.50;101873.59;4474317;32;32114;-86
2024/01/30 03:27:19;;;;;;;;;;;;;;;0.70;65.92;101879.00;4484414;32;33077;-85
2024/01/30 03:29:48;;;;;;;;;;;;;;;0.80;65.62;101877.13;4467675;32;34697;-85
2024/01/30 03:32:17;;;;;;;;;;;;;;;0.78;65.71;101876.12;4466882;32;34176;-85
2024/01/30 03:34:46;;;;;;;;;;;;;;;0.77;66.16;101871.81;4482940;26;33249;-88
2024/01/30 03:37:16;;;;;;;;;;;;;;;0.73;66.21;101876.66;4458749;32;34152;-86
2024/01/30 03:39:49;;;;;;;;;;;;;;;0.72;66.15;101870.63;4460740;32;33665;-88
2024/01/30 03:42:22;;;;;;;;;;;;;;;0.73;66.36;101869.88;4455942;32;33178;-88
2024/01/30 03:44:51;;;;;;;;;;;;;;;0.56;66.32;101865.41;4465304;32;33005;-87
2024/01/30 03:47:25;;;;;;;;;;;;;;;0.70;66.45;101859.47;4465510;32;35196;-87
2024/01/30 03:49:53;;;;;;;;;;;;;;;0.73;66.22;101856.22;4467916;32;34461;-87
2024/01/30 03:52:30;;;;;;;;;;;;;;;0.70;66.06;101854.34;4450521;32;33545;-87
2024/01/30 03:55:06;;;;;;;;;;;;;;;0.73;66.06;101851.97;4452927;32;33886;-87
2024/01/30 03:57:35;;;;;;;;;;;;;;;0.85;65.75;101852.72;4465130;32;34699;-89
2024/01/30 04:00:06;;;;;;;;;;;;;;;0.62;66.67;101845.31;4465190;32;33761;-89
2024/01/30 04:02:39;;;;;;;;;;;;;;;0.78;66.32;101855.69;4452999;32;34650;-88
2024/01/30 04:05:12;;;;;;;;;;;;;;;0.76;66.43;101853.84;4450688;32;32836;-85
2024/01/30 04:07:40;;;;;;;;;;;;;;;0.83;66.30;101845.75;4450192;32;35027;-88
2024/01/30 04:10:19;;;;;;;;;;;;;;;0.77;66.70;101855.59;4448287;32;33125;-89
2024/01/30 04:12:49;;;;;;;;;;;;;;;0.80;66.32;101848.13;4457271;32;33370;-86
2024/01/30 04:15:18;;;;;;;;;;;;;;;0.84;66.12;101847.50;4452997;32;33426;-88
2024/01/30 04:17:52;;;;;;;;;;;;;;;0.93;65.94;101848.06;4453905;32;33697;-89
2024/01/30 04:20:21;;;;;;;;;;;;;;;0.80;66.01;101843.91;4456202;32;34323;-87
2024/01/30 04:22:50;;;;;;;;;;;;;;;0.65;66.18;101840.41;4466290;32;33907;-86
2024/01/30 04:25:21;;;;;;;;;;;;;;;0.67;66.18;101838.81;4468472;32;33376;-89
2024/01/30 04:27:50;;;;;;;;;;;;;;;0.60;66.27;101840.13;4464496;32;33344;-87
2024/01/30 04:30:19;;;;;;;;;;;;;;;0.62;66.10;101847.88;4465425;32;34184;-87
2024/01/30 04:32:48;;;;;;;;;;;;;;;0.51;66.10;101843.75;4464950;32;34562;-89
2024/01/30 04:35:20;;;;;;;;;;;;;;;0.26;67.02;101838.81;4445990;32;1094993;-88
2024/01/30 04:37:49;;;;;;;;;;;;;;;0.38;66.02;101843.00;4483823;32;34616;-89
2024/01/30 04:40:25;;;;;;;;;;;;;;;0.14;66.79;101849.12;4477917;32;34019;-87
2024/01/30 04:43:00;;;;;;;;;;;;;;;0.26;65.66;101844.78;4477331;32;33720;-87
2024/01/30 04:45:29;;;;;;;;;;;;;;;0.24;65.92;101850.59;4484204;32;34000;-90
2024/01/30 04:48:01;;;;;;;;;;;;;;;0.16;65.74;101855.22;4482234;32;34990;-87
2024/01/30 04:50:30;;;;;;;;;;;;;;;0.16;65.25;101852.66;4466074;32;36482;-88
2024/01/30 04:52:59;;;;;;;;;;;;;;;0.32;64.62;101865.62;4469688;32;34380;-87
2024/01/30 04:55:30;;;;;;;;;;;;;;;-0.04;65.26;101862.47;4481548;32;32955;-90
2024/01/30 04:58:00;;;;;;;;;;;;;;;-0.01;66.00;101859.25;4479996;32;33905;-88
2024/01/30 05:00:29;;;;;;;;;;;;;;;0.06;65.55;101855.41;4483482;32;35260;-88
2024/01/30 05:03:04;;;;;;;;;;;;;;;-0.05;65.71;101859.81;4479844;32;33526;-87
2024/01/30 05:05:33;;;;;;;;;;;;;;;-0.13;66.08;101864.44;4479370;32;33613;-88
2024/01/30 05:08:02;;;;;;;;;;;;;;;-0.06;65.59;101871.69;4480431;32;33904;-88
2024/01/30 05:10:35;;;;;;;;;;;;;;;0.06;65.13;101863.94;4477182;32;34262;-87
2024/01/30 05:13:07;;;;;;;;;;;;;;;-0.12;65.51;101871.31;4483533;32;35099;-86
2024/01/30 05:15:36;;;;;;;;;;;;;;;-0.03;65.12;101864.22;4479463;32;33780;-89
2024/01/30 05:18:06;;;;;;;;;;;;;;;0.04;65.02;101873.19;4479614;32;33820;-87
2024/01/30 05:20:35;;;;;;;;;;;;;;;-0.05;65.47;101872.56;4479325;32;34986;-90
2024/01/30 05:23:04;;;;;;;;;;;;;;;0.17;64.49;101874.84;4483305;32;34294;-90
2024/01/30 05:25:33;;;;;;;;;;;;;;;0.11;64.55;101877.87;4482549;32;32905;-86
2024/01/30 05:28:03;;;;;;;;;;;;;;;-0.01;64.88;101883.09;4478852;32;33447;-89
2024/01/30 05:30:34;;;;;;;;;;;;;;;-0.14;65.16;101890.75;4479703;32;33964;-87
2024/01/30 05:33:03;;;;;;;;;;;;;;;-0.05;64.97;101893.00;4482887;32;35518;-88
2024/01/30 05:35:39;;;;;;;;;;;;;;;0.01;64.91;101880.63;4482321;32;33062;-90
2024/01/30 05:38:12;;;;;;;;;;;;;;;0.04;64.63;101890.16;4469902;32;34111;-87
2024/01/30 05:40:42;;;;;;;;;;;;;;;-0.11;65.15;101895.16;4465033;32;34571;-88
2024/01/30 05:43:20;;;;;;;;;;;;;;;-0.05;65.23;101896.44;4473662;32;34013;-88
2024/01/30 05:45:50;;;;;;;;;;;;;;;-0.19;65.31;101896.31;4483547;32;33275;-87
2024/01/30 05:48:19;;;;;;;;;;;;;;;-0.27;66.22;101893.25;4480260;32;34313;-88
2024/01/30 05:50:48;;;;;;;;;;;;;;;-0.15;65.67;101893.19;4481948;32;35089;-87
2024/01/30 05:53:18;;;;;;;;;;;;;;;-0.24;65.21;101893.47;4481797;32;33987;-88
2024/01/30 05:55:46;;;;;;;;;;;;;;;-0.05;65.13;101896.44;4480537;32;34053;-87
2024/01/30 05:58:15;;;;;;;;;;;;;;;-0.16;65.37;101893.97;4485071;32;33929;-87
2024/01/30 06:00:46;;;;;;;;;;;;;;;-0.16;65.24;101892.31;4480658;32;34068;-87
2024/01/30 06:03:17;;;;;;;;;;;;;;;-0.36;65.86;101891.00;4466314;32;33636;-87
2024/01/30 06:05:47;;;;;;;;;;;;;;;-0.26;65.37;101892.50;4465599;32;32849;-88
2024/01/30 06:08:23;;;;;;;;;;;;;;;-0.17;65.24;101889.62;4469221;32;33798;-87
2024/01/30 06:10:53;;;;;;;;;;;;;;;-0.41;65.95;101894.00;4481349;32;33977;-88
2024/01/30 06:13:23;;;;;;;;;;;;;;;-0.26;65.50;101892.50;4480507;32;33185;-87
2024/01/30 06:15:53;;;;;;;;;;;;;;;-0.24;65.35;101893.47;4482867;32;33040;-90
2024/01/30 06:18:23;;;;;;;;;;;;;;;-0.02;64.70;101898.31;4468198;32;34281;-87
2024/01/30 06:20:53;;;;;;;;;;;;;;;-0.11;65.09;101901.13;4469121;32;34557;-86
2024/01/30 06:23:22;;;;;;;;;;;;;;;-0.27;65.73;101895.81;4464489;32;34314;-86
2024/01/30 06:25:54;;;;;;;;;;;;;;;-0.05;65.01;101896.44;4467017;32;33123;-87
2024/01/30 06:30:59;;;;;;;;;;;;;;;-0.17;65.89;101900.75;4451582;32;33248;-88
2024/01/30 06:33:28;;;;;;;;;;;;;;;-0.10;65.35;101902.88;4467234;32;34374;-86
2024/01/30 06:35:57;;;;;;;;;;;;;;;-0.17;65.96;101904.94;4464162;32;33936;-89
2024/01/30 06:38:27;;;;;;;;;;;;;;;-0.03;65.48;101906.72;4476953;32;33752;-89
2024/01/30 06:40:59;;;;;;;;;;;;;;;-0.15;65.87;101908.47;4480586;32;34037;-87
2024/01/30 06:43:29;;;;;;;;;;;;;;;-0.04;65.53;101907.53;4484317;32;34280;-86
2024/01/30 06:46:01;;;;;;;;;;;;;;;-0.01;65.76;101905.16;4480501;32;32852;-87
2024/01/30 06:48:37;;;;;;;;;;;;;;;0.05;65.40;101904.66;4480938;32;34196;-86
2024/01/30 06:51:05;;;;;;;;;;;;;;;0.09;65.33;101911.75;4478866;32;34083;-87
2024/01/30 06:53:35;;;;;;;;;;;;;;;0.12;65.18;101905.19;4469386;32;33605;-86
2024/01/30 06:56:04;;;;;;;;;;;;;;;0.20;64.88;101910.78;4470001;32;33749;-90
2024/01/30 06:58:42;;;;;;;;;;;;;;;0.24;65.08;101899.09;4473831;32;33631;-86
2024/01/30 07:01:12;;;;;;;;;;;;;;;0.36;64.70;101905.88;4465223;32;35041;-88
2024/01/30 07:03:45;;;;;;;;;;;;;;;0.30;65.46;101905.47;4465799;32;34810;-89
2024/01/30 07:08:50;;;;;;;;;;;;;;;0.39;65.51;101913.72;4485174;32;34574;-87
2024/01/30 07:11:23;;;;;;;;;;;;;;;0.29;66.09;101910.47;4481419;32;34783;-86
2024/01/30 07:13:52;;;;;;;;;;;;;;;0.34;65.81;101914.19;4481836;32;34174;-88
2024/01/30 07:16:23;;;;;;;;;;;;;;;0.27;66.29;101915.50;4472461;32;33230;-88
2024/01/30 07:18:51;;;;;;;;;;;;;;;0.31;66.46;101909.78;4485853;32;33165;-88
2024/01/30 07:21:27;;;;;;;;;;;;;;;0.46;65.94;101911.56;4480641;32;34343;-86
2024/01/30 07:23:56;;;;;;;;;;;;;;;0.45;66.29;101913.22;4481459;32;34002;-88
2024/01/30 07:26:27;;;;;;;;;;;;;;;0.50;66.31;101910.97;4481669;32;33843;-88
2024/01/30 07:28:57;;;;;;;;;;;;;;;0.60;66.37;101916.75;4464775;32;34656;-88
2024/01/30 07:31:29;;;;;;;;;;;;;;;0.52;66.72;101912.81;4484894;32;34199;-89
2024/01/30 07:34:03;;;;;;;;;;;;;;;0.66;66.59;101926.47;4468470;32;34557;-88
2024/01/30 07:36:41;;;;;;;;;;;;;;;0.46;67.83;101914.09;4476985;32;33414;-87
2024/01/30 07:39:11;;;;;;;;;;;;;;;0.24;69.76;101911.84;4475843;32;33201;-86
2024/01/30 07:41:40;;;;;;;;;;;;;;;0.51;69.65;101905.97;4484292;32;34188;-87
2024/01/30 07:44:12;;;;;;;;;;;;;;;0.51;69.33;101908.53;4483685;32;34061;-86
2024/01/30 07:46:42;;;;;;;;;;;;;;;0.90;68.52;101903.25;4480529;32;33371;-87
2024/01/30 07:49:16;;;;;;;;;;;;;;;0.83;69.39;101894.31;4480179;32;34254;-88
2024/01/30 07:51:46;;;;;;;;;;;;;;;0.91;69.13;101897.34;4466749;32;32842;-88
2024/01/30 07:54:14;;;;;;;;;;;;;;;0.81;70.27;101899.31;4484448;32;34302;-86
2024/01/30 07:56:43;;;;;;;;;;;;;;;1.04;69.99;101897.31;4471732;32;32678;-88
2024/01/30 07:59:12;;;;;;;;;;;;;;;1.25;69.15;101900.25;4480681;32;34407;-88
2024/01/30 08:01:43;;;;;;;;;;;;;;;1.42;68.80;101898.69;4478634;32;33137;-88
2024/01/30 08:04:13;;;;;;;;;;;;;;;1.26;70.24;101900.34;4482957;32;34196;-87
2024/01/30 08:06:46;;;;;;;;;;;;;;;1.45;70.26;101901.44;4471665;32;34433;-89
2024/01/30 08:09:21;;;;;;;;;;;;;;;1.40;71.63;101900.28;4468374;32;34655;-86
2024/01/30 08:11:50;;;;;;;;;;;;;;;1.50;72.05;101894.94;4473898;32;34155;-89
2024/01/30 08:14:23;;;;;;;;;;;;;;;1.49;73.17;101901.69;4464844;32;32471;-87
2024/01/30 08:16:52;;;;;;;;;;;;;;;1.55;73.73;101901.22;4471386;32;34115;-89
2024/01/30 08:19:21;;;;;;;;;;;;;;;1.43;75.14;101908.16;4470542;32;34287;-86
2024/01/30 08:21:50;;;;;;;;;;;;;;;1.22;76.92;101907.75;4467585;32;34229;-89
2024/01/30 08:24:20;;;;;;;;;;;;;;;1.43;76.68;101913.28;4472964;32;33464;-87
2024/01/30 08:26:52;;;;;;;;;;;;;;;1.57;76.28;101904.75;4471439;32;33762;-87
2024/01/30 08:29:22;;;;;;;;;;;;;;;1.69;76.47;101917.34;4484087;32;34082;-86
2024/01/30 08:31:53;;;;;;;;;;;;;;;1.59;76.48;101910.81;4479350;32;34630;-88
2024/01/30 08:34:25;;;;;;;;;;;;;;;2.03;75.77;101912.50;4467372;32;34262;-87
2024/01/30 08:36:54;;;;;;;;;;;;;;;1.56;76.85;101914.87;4469969;32;32773;-88
2024/01/30 08:39:30;;;;;;;;;;;;;;;2.26;74.56;101921.47;4456753;32;33638;-88
2024/01/30 08:41:59;;;;;;;;;;;;;;;1.86;76.30;101928.56;4464358;32;34559;-89
2024/01/30 08:44:30;;;;;;;;;;;;;;;1.83;75.41;101925.81;4471262;32;33631;-85
2024/01/30 08:47:00;;;;;;;;;;;;;;;1.64;77.14;101928.97;4469291;32;32809;-88
2024/01/30 08:49:29;;;;;;;;;;;;;;;1.19;78.84;101928.03;4464164;32;33748;-87
2024/01/30 08:51:59;;;;;;;;;;;;;;;1.30;78.50;101928.66;4468229;32;34347;-88
2024/01/30 08:54:36;;;;;;;;;;;;;;;1.36;77.77;101927.34;4479018;32;33549;-86
2024/01/30 08:57:05;;;;;;;;;;;;;;;1.67;78.58;101922.38;4480135;32;32730;-88
2024/01/30 08:59:34;;;;;;;;;;;;;;;1.55;78.66;101916.56;4479692;32;34347;-87
2024/01/30 09:02:05;;;;;;;;;;;;;;;1.62;77.98;101918.69;4483314;32;34564;-86
2024/01/30 09:04:43;;;;;;;;;;;;;;;1.72;79.21;101920.09;4483827;32;33676;-86
2024/01/30 09:07:16;;;;;;;;;;;;;;;1.92;78.15;101919.56;4481506;32;33048;-86
2024/01/30 09:09:45;;;;;;;;;;;;;;;2.14;77.22;101914.00;4472905;32;34057;-88
2024/01/30 09:12:14;;;;;;;;;;;;;;;1.54;79.04;101914.75;4474419;32;33273;-85
2024/01/30 09:14:43;;;;;;;;;;;;;;;1.96;77.53;101910.41;4486313;32;33882;-87
2024/01/30 09:17:13;;;;;;;;;;;;;;;1.77;78.77;101910.12;4482172;32;33024;-88
2024/01/30 09:19:43;;;;;;;;;;;;;;;1.57;79.57;101917.53;4481450;32;33936;-87
2024/01/30 09:22:12;;;;;;;;;;;;;;;1.90;78.72;101921.16;4476365;32;35190;-87
2024/01/30 09:24:46;;;;;;;;;;;;;;;2.26;76.56;101913.81;4479750;32;33608;-87
2024/01/30 09:27:23;;;;;;;;;;;;;;;2.65;75.61;101905.69;4484791;32;34139;-88
2024/01/30 09:29:51;;;;;;;;;;;;;;;2.01;77.71;101918.34;4480521;32;33925;-88
2024/01/30 09:32:25;;;;;;;;;;;;;;;2.42;76.02;101907.87;4481267;32;34782;-87
2024/01/30 09:34:54;;;;;;;;;;;;;;;2.28;76.45;101913.91;4480015;32;33921;-88
2024/01/30 09:37:26;;;;;;;;;;;;;;;1.96;78.30;101912.97;4486133;32;33246;-87
2024/01/30 09:39:55;;;;;;;;;;;;;;;2.04;79.19;101903.16;4485212;32;33923;-89
2024/01/30 09:42:29;;;;;;;;;;;;;;;2.27;78.46;101907.91;4475141;32;33885;-88
2024/01/30 09:44:57;;;;;;;;;;;;;;;2.73;76.92;101907.87;4471159;32;33946;-87
2024/01/30 09:47:32;;;;;;;;;;;;;;;2.67;77.44;101910.09;4477676;32;33681;-86
2024/01/30 09:50:02;;;;;;;;;;;;;;;2.10;79.32;101911.16;4480662;32;33415;-88
2024/01/30 09:52:37;;;;;;;;;;;;;;;2.51;77.84;101915.16;4480168;32;33779;-88
2024/01/30 09:55:06;;;;;;;;;;;;;;;2.93;77.52;101913.19;4468491;32;34285;-88
2024/01/30 09:57:39;;;;;;;;;;;;;;;2.97;76.78;101910.88;4481189;32;32738;-89
2024/01/30 10:00:09;;;;;;;;;;;;;;;2.64;77.92;101903.94;4477401;32;34181;-87
2024/01/30 10:02:58;;;;;;;;;;;;;;;2.74;77.92;101907.06;4451160;32;33546;-88
2024/01/30 10:05:27;;;;;;;;;;;;;;;3.49;75.57;101912.69;4440047;32;33478;-88
2024/01/30 10:07:58;;;;;;;;;;;;;;;3.52;75.00;101911.97;4445208;32;32983;-88
2024/01/30 10:10:27;;;;;;;;;;;;;;;3.61;75.30;101917.56;4447276;32;33774;-90
2024/01/30 10:12:59;;;;;;;;;;;;;;;4.21;74.57;101908.56;4447460;32;33560;-87
2024/01/30 10:15:35;;;;;;;;;;;;;;;4.45;73.26;101908.88;4450776;32;33755;-89
2024/01/30 10:18:10;;;;;;;;;;;;;;;4.67;72.85;101903.03;4437632;32;33077;-90
2024/01/30 10:20:40;;;;;;;;;;;;;;;4.76;73.02;101907.72;4446211;32;35167;-89
2024/01/30 10:23:09;;;;;;;;;;;;;;;5.02;72.28;101908.03;4448734;32;33321;-89
2024/01/30 10:25:46;;;;;;;;;;;;;;;5.09;71.90;101892.94;4449615;32;34496;-89
2024/01/30 10:28:15;;;;;;;;;;;;;;;5.26;71.51;101903.09;4452150;32;33837;-90
2024/01/30 10:30:46;;;;;;;;;;;;;;;5.37;70.77;101896.72;4448256;32;33998;-89
2024/01/30 10:33:17;;;;;;;;;;;;;;;5.45;70.65;101895.34;4450951;32;33611;-91
2024/01/30 10:35:47;;;;;;;;;;;;;;;5.51;70.10;101895.63;4465197;32;33697;-92
2024/01/30 10:38:15;;;;;;;;;;;;;;;5.47;69.46;101892.84;4461157;32;32824;-91
2024/01/30 10:40:53;;;;;;;;;;;;;;;5.32;69.22;101890.50;4438625;32;34292;-91
2024/01/30 10:43:22;;;;;;;;;;;;;;;5.45;68.55;101886.75;4435074;32;34721;-93
2024/01/30 10:45:59;;;;;;;;;;;;;;;5.31;68.72;101888.72;4436066;32;34124;-92
2024/01/30 10:48:32;;;;;;;;;;;;;;;5.49;68.89;101876.66;4435948;32;33718;-92
2024/01/30 10:51:00;;;;;;;;;;;;;;;5.71;68.75;101872.41;4438014;32;34414;-93
2024/01/30 10:53:31;;;;;;;;;;;;;;;5.13;70.10;101871.69;4437746;32;33525;-92
2024/01/30 10:56:00;;;;;;;;;;;;;;;5.39;68.49;101868.47;4450893;32;34043;-94
2024/01/30 10:58:30;;;;;;;;;;;;;;;5.51;67.88;101864.72;4450394;32;34200;-94
2024/01/30 11:01:01;;;;;;;;;;;;;;;5.43;67.62;101866.09;4454014;32;34269;-94
2024/01/30 11:03:39;;;;;;;;;;;;;;;5.48;67.20;101858.56;4452785;32;33574;-94
2024/01/30 11:06:26;;;;;;;;;;;;;;;5.40;67.66;101858.25;4451048;32;33840;-94
2024/01/30 11:09:02;;;;;;;;;;;;;;;5.30;68.11;101851.81;4451744;32;33605;-94
2024/01/30 12:03:33;;;;;;;;;;;;;;;5.39;67.13;101797.28;5028497;26;19991;-96
2024/01/30 12:06:43;;;;;;;;;;;;;;;5.56;66.26;101791.12;4396737;32;34435;-95
2024/01/30 12:10:13;;;;;;;;;;;;;;;5.68;65.44;101783.03;4408901;32;33397;-95
2024/01/30 12:13:09;;;;;;;;;;;;;;;5.88;64.75;101778.66;4394237;32;33145;-95
2024/01/30 12:16:03;;;;;;;;;;;;;;;5.56;65.74;101778.25;4383817;32;32786;-95
2024/01/30 12:19:00;;;;;;;;;;;;;;;5.85;64.65;101777.69;4393352;32;32659;-96
2024/01/30 12:22:03;;;;;;;;;;;;;;;5.60;64.80;101776.69;4396708;32;34981;-95
2024/01/30 12:25:15;;;;;;;;;;;;;;;5.81;64.09;101770.66;4393788;32;35538;-95
2024/01/30 12:28:40;;;;;;;;;;;;;;;6.05;63.18;101770.75;4387552;32;34301;-95
2024/01/30 12:31:44;;;;;;;;;;;;;;;5.92;63.25;101770.25;4393847;32;34180;-95
2024/01/30 12:34:27;;;;;;;;;;;;;;;6.00;63.20;101772.28;4389610;32;34988;-95
2024/01/30 12:38:01;;;;;;;;;;;;;;;5.76;63.33;101763.59;4392177;32;32855;-95
2024/01/30 12:40:35;;;;;;;;;;;;;;;5.86;62.42;101762.28;4378637;32;33924;-96
2024/01/30 12:43:08;;;;;;;;;;;;;;;6.01;62.12;101764.59;4397632;32;33748;-96
2024/01/30 12:45:39;;;;;;;;;;;;;;;6.09;61.97;101764.88;4386016;32;34126;-94
2024/01/30 12:48:11;;;;;;;;;;;;;;;5.91;62.08;101754.72;4374167;32;32218;-95
2024/01/30 12:50:49;;;;;;;;;;;;;;;6.17;60.88;101755.75;4404367;32;34302;-95
2024/01/30 12:53:22;;;;;;;;;;;;;;;5.86;62.06;101745.94;4407629;32;34809;-96
2024/01/30 12:56:11;;;;;;;;;;;;;;;5.89;61.32;101746.94;4403682;32;34538;-95
2024/01/30 12:58:46;;;;;;;;;;;;;;;5.90;61.46;101742.69;4390107;32;32753;-96
2024/01/30 13:01:19;;;;;;;;;;;;;;;5.96;59.98;101738.66;4390817;32;33482;-95
2024/01/30 13:03:51;;;;;;;;;;;;;;;6.03;59.64;101734.63;4390536;32;33506;-95
2024/01/30 13:06:20;;;;;;;;;;;;;;;6.19;59.35;101743.81;4405657;32;34655;-96
2024/01/30 13:08:59;;;;;;;;;;;;;;;6.27;58.78;101738.94;4389774;32;31679;-94
2024/01/30 13:11:30;;;;;;;;;;;;;;;5.83;59.71;101738.09;4377412;32;33651;-93
2024/01/30 13:14:01;;;;;;;;;;;;;;;6.05;58.82;101729.53;4414998;32;33103;-95
2024/01/30 13:16:32;;;;;;;;;;;;;;;5.90;59.56;101730.66;4406097;32;33848;-93
2024/01/30 13:19:01;;;;;;;;;;;;;;;6.21;58.49;101731.87;4391619;32;32785;-94
2024/01/30 13:21:30;;;;;;;;;;;;;;;6.32;57.62;101725.41;4403456;32;34106;-93
2024/01/30 13:24:00;;;;;;;;;;;;;;;6.20;57.30;101719.78;4405546;32;33473;-94
2024/01/30 13:26:33;;;;;;;;;;;;;;;6.16;57.26;101720.50;4403811;32;33558;-93
2024/01/30 13:29:02;;;;;;;;;;;;;;;6.36;56.40;101727.28;4406168;32;32631;-94
2024/01/30 13:31:31;;;;;;;;;;;;;;;6.34;56.88;101728.03;4388820;32;34069;-92
2024/01/30 13:34:03;;;;;;;;;;;;;;;6.28;56.73;101725.22;4405497;32;33964;-93
2024/01/30 13:36:36;;;;;;;;;;;;;;;6.21;55.71;101731.87;4403420;32;33624;-96
2024/01/30 13:39:10;;;;;;;;;;;;;;;6.35;55.29;101725.50;4405532;32;33070;-93
2024/01/30 13:41:50;;;;;;;;;;;;;;;6.18;55.06;101729.16;4406267;32;33784;-93
2024/01/30 13:44:20;;;;;;;;;;;;;;;6.13;55.25;101728.13;4419640;32;34463;-93
2024/01/30 13:46:49;;;;;;;;;;;;;;;6.29;54.77;101722.72;4418827;32;33649;-93
2024/01/30 13:49:24;;;;;;;;;;;;;;;6.17;55.73;101725.72;4418307;32;33180;-91
2024/01/30 13:51:53;;;;;;;;;;;;;;;6.02;56.13;101722.56;4422518;32;34457;-93
2024/01/30 13:54:31;;;;;;;;;;;;;;;6.08;56.27;101719.34;4420806;32;33874;-95
2024/01/30 13:57:00;;;;;;;;;;;;;;;6.11;56.70;101725.50;4418600;32;34070;-93
2024/01/30 13:59:30;;;;;;;;;;;;;;;6.07;56.89;101710.72;4403168;32;33105;-94
2024/01/30 14:01:59;;;;;;;;;;;;;;;5.92;57.55;101713.56;4404341;32;33853;-93
2024/01/30 14:04:36;;;;;;;;;;;;;;;6.06;57.41;101708.09;4405852;32;33759;-95
2024/01/30 14:07:07;;;;;;;;;;;;;;;6.06;58.06;101708.09;4406768;32;35500;-92
2024/01/30 14:09:37;;;;;;;;;;;;;;;5.83;58.54;101705.50;4407025;32;32868;-94